sensor_id;sensor_type;location;lat;lon;timestamp;noise_LAeq;noise_LA_min;noise_LA_max;noise_LA01;noise_LA95
50333;Laerm;36239;48.132;-1.210;2023-04-01T00:02:19;54.59;35.36;81.73;;
50333;Laerm;36239;48.132;-1.210;2023-04-01T00:04:45;56.10;35.66;82.30;;
50333;Laerm;36239;48.132;-1.210;2023-04-01T00:07:11;45.38;34.31;72.72;;
50333;Laerm;36239;48.132;-1.210;2023-04-01T00:09:37;54.78;34.69;86.88;;
50333;Laerm;36239;48.132;-1.210;2023-04-01T00:12:03;46.66;35.66;72.84;;
50333;Laerm;36239;48.132;-1.210;2023-04-01T00:14:29;60.83;37.70;87.85;;
50333;Laerm;36239;48.132;-1.210;2023-04-01T00:16:55;62.13;36.91;89.50;;
50333;Laerm;36239;48.132;-1.210;2023-04-01T00:19:21;55.64;37.12;82.77;;
50333;Laerm;36239;48.132;-1.210;2023-04-01T00:21:47;62.81;35.66;88.69;;
50333;Laerm;36239;48.132;-1.210;2023-04-01T00:24:13;61.61;35.94;87.04;;
50333;Laerm;36239;48.132;-1.210;2023-04-01T00:26:39;62.92;36.91;91.74;;
50333;Laerm;36239;48.132;-1.210;2023-04-01T00:29:08;52.85;35.94;78.29;;
50333;Laerm;36239;48.132;-1.210;2023-04-01T00:31:33;59.42;35.36;88.23;;
50333;Laerm;36239;48.132;-1.210;2023-04-01T00:34:00;51.15;36.45;80.46;;
50333;Laerm;36239;48.132;-1.210;2023-04-01T00:36:26;58.18;36.45;82.11;;
50333;Laerm;36239;48.132;-1.210;2023-04-01T00:38:52;47.38;35.94;74.12;;
50333;Laerm;36239;48.132;-1.210;2023-04-01T00:41:18;55.56;33.90;86.71;;
50333;Laerm;36239;48.132;-1.210;2023-04-01T00:43:46;61.86;35.66;89.15;;
50333;Laerm;36239;48.132;-1.210;2023-04-01T00:46:12;56.86;36.45;86.24;;
50333;Laerm;36239;48.132;-1.210;2023-04-01T00:48:44;62.92;34.69;90.23;;
50333;Laerm;36239;48.132;-1.210;2023-04-01T00:51:15;57.57;35.36;85.40;;
50333;Laerm;36239;48.132;-1.210;2023-04-01T00:53:43;54.99;35.66;83.76;;
50333;Laerm;36239;48.132;-1.210;2023-04-01T00:56:11;61.51;33.90;93.01;;
50333;Laerm;36239;48.132;-1.210;2023-04-01T00:58:40;51.85;35.04;77.31;;
50333;Laerm;36239;48.132;-1.210;2023-04-01T01:01:07;59.28;35.04;89.75;;
50333;Laerm;36239;48.132;-1.210;2023-04-01T01:03:34;55.12;35.36;84.46;;
50333;Laerm;36239;48.132;-1.210;2023-04-01T01:06:24;54.40;35.66;79.89;;
50333;Laerm;36239;48.132;-1.210;2023-04-01T01:11:19;46.69;34.69;73.35;;
50333;Laerm;36239;48.132;-1.210;2023-04-01T01:16:54;63.29;35.04;94.32;;
50333;Laerm;36239;48.132;-1.210;2023-04-01T01:19:35;57.30;35.94;88.09;;
50333;Laerm;36239;48.132;-1.210;2023-04-01T01:27:16;51.17;35.01;77.80;;
50333;Laerm;36239;48.132;-1.210;2023-04-01T01:37:20;53.65;35.04;79.43;;
50333;Laerm;36239;48.132;-1.210;2023-04-01T01:39:50;56.62;34.69;82.69;;
50333;Laerm;36239;48.132;-1.210;2023-04-01T01:42:16;48.36;33.44;73.80;;
50333;Laerm;36239;48.132;-1.210;2023-04-01T01:44:44;52.48;34.69;77.66;;
50333;Laerm;36239;48.132;-1.210;2023-04-01T01:47:11;55.55;35.01;83.94;;
50333;Laerm;36239;48.132;-1.210;2023-04-01T01:49:39;51.73;32.93;78.53;;
50333;Laerm;36239;48.132;-1.210;2023-04-01T01:52:07;50.16;33.90;77.79;;
50333;Laerm;36239;48.132;-1.210;2023-04-01T01:54:33;53.22;33.44;81.33;;
50333;Laerm;36239;48.132;-1.210;2023-04-01T01:57:02;41.10;33.90;69.18;;
50333;Laerm;36239;48.132;-1.210;2023-04-01T01:59:30;59.38;32.35;87.36;;
50333;Laerm;36239;48.132;-1.210;2023-04-01T02:01:57;49.21;33.90;73.27;;
50333;Laerm;36239;48.132;-1.210;2023-04-01T02:04:25;50.73;32.93;79.15;;
50333;Laerm;36239;48.132;-1.210;2023-04-01T02:06:53;55.46;34.31;83.30;;
50333;Laerm;36239;48.132;-1.210;2023-04-01T02:09:21;47.32;34.69;74.00;;
50333;Laerm;36239;48.132;-1.210;2023-04-01T02:11:51;55.47;34.69;85.29;;
50333;Laerm;36239;48.132;-1.210;2023-04-01T02:14:22;47.36;35.01;77.93;;
50333;Laerm;36239;48.132;-1.210;2023-04-01T02:16:51;47.15;33.44;78.91;;
50333;Laerm;36239;48.132;-1.210;2023-04-01T02:19:18;40.57;33.90;63.39;;
50333;Laerm;36239;48.132;-1.210;2023-04-01T02:21:49;54.50;34.69;83.46;;
50333;Laerm;36239;48.132;-1.210;2023-04-01T02:24:17;50.30;34.31;79.90;;
50333;Laerm;36239;48.132;-1.210;2023-04-01T02:26:44;40.88;34.69;60.37;;
50333;Laerm;36239;48.132;-1.210;2023-04-01T02:29:11;54.82;35.04;84.08;;
50333;Laerm;36239;48.132;-1.210;2023-04-01T02:31:37;57.28;34.69;86.78;;
50333;Laerm;36239;48.132;-1.210;2023-04-01T02:34:04;63.88;36.45;96.41;;
50333;Laerm;36239;48.132;-1.210;2023-04-01T02:36:30;50.09;34.69;78.61;;
50333;Laerm;36239;48.132;-1.210;2023-04-01T02:38:57;57.61;35.66;89.39;;
50333;Laerm;36239;48.132;-1.210;2023-04-01T02:41:28;56.92;35.04;87.57;;
50333;Laerm;36239;48.132;-1.210;2023-04-01T02:43:54;52.70;35.66;80.50;;
50333;Laerm;36239;48.132;-1.210;2023-04-01T02:46:20;42.53;35.94;70.32;;
50333;Laerm;36239;48.132;-1.210;2023-04-01T02:48:46;47.08;34.31;73.99;;
50333;Laerm;36239;48.132;-1.210;2023-04-01T02:51:12;39.91;33.44;63.15;;
50333;Laerm;36239;48.132;-1.210;2023-04-01T02:53:38;49.93;34.31;82.01;;
50333;Laerm;36239;48.132;-1.210;2023-04-01T02:56:04;51.57;35.36;79.36;;
50333;Laerm;36239;48.132;-1.210;2023-04-01T02:58:30;54.90;35.36;82.31;;
50333;Laerm;36239;48.132;-1.210;2023-04-01T03:00:56;53.70;35.04;80.73;;
50333;Laerm;36239;48.132;-1.210;2023-04-01T03:03:22;52.47;34.69;81.13;;
50333;Laerm;36239;48.132;-1.210;2023-04-01T03:05:48;55.25;35.36;83.38;;
50333;Laerm;36239;48.132;-1.210;2023-04-01T03:08:14;61.43;34.31;90.92;;
50333;Laerm;36239;48.132;-1.210;2023-04-01T03:10:40;50.05;34.69;79.34;;
50333;Laerm;36239;48.132;-1.210;2023-04-01T03:13:07;55.93;34.31;86.70;;
50333;Laerm;36239;48.132;-1.210;2023-04-01T03:15:33;56.35;35.66;81.45;;
50333;Laerm;36239;48.132;-1.210;2023-04-01T03:17:59;48.19;35.66;76.17;;
50333;Laerm;36239;48.132;-1.210;2023-04-01T03:20:25;48.88;33.90;75.02;;
50333;Laerm;36239;48.132;-1.210;2023-04-01T03:22:51;59.70;35.04;90.47;;
50333;Laerm;36239;48.132;-1.210;2023-04-01T03:25:17;59.96;35.66;86.12;;
50333;Laerm;36239;48.132;-1.210;2023-04-01T03:27:43;55.20;35.36;84.48;;
50333;Laerm;36239;48.132;-1.210;2023-04-01T03:30:10;55.15;35.04;83.39;;
50333;Laerm;36239;48.132;-1.210;2023-04-01T03:32:36;60.81;35.66;90.05;;
50333;Laerm;36239;48.132;-1.210;2023-04-01T03:35:02;47.85;34.31;72.11;;
50333;Laerm;36239;48.132;-1.210;2023-04-01T03:37:28;54.24;36.45;81.87;;
50333;Laerm;36239;48.132;-1.210;2023-04-01T03:39:54;48.38;35.66;77.72;;
50333;Laerm;36239;48.132;-1.210;2023-04-01T03:42:20;55.29;36.20;85.28;;
50333;Laerm;36239;48.132;-1.210;2023-04-01T03:44:46;53.16;35.36;79.59;;
50333;Laerm;36239;48.132;-1.210;2023-04-01T03:47:12;45.87;33.44;71.68;;
50333;Laerm;36239;48.132;-1.210;2023-04-01T03:49:38;42.11;33.90;64.37;;
50333;Laerm;36239;48.132;-1.210;2023-04-01T03:52:04;40.33;33.44;65.90;;
50333;Laerm;36239;48.132;-1.210;2023-04-01T03:54:33;54.12;34.31;82.13;;
50333;Laerm;36239;48.132;-1.210;2023-04-01T03:56:59;42.88;35.36;69.49;;
50333;Laerm;36239;48.132;-1.210;2023-04-01T03:59:25;44.12;33.44;74.73;;
50333;Laerm;36239;48.132;-1.210;2023-04-01T04:01:51;41.70;32.93;67.30;;
50333;Laerm;36239;48.132;-1.210;2023-04-01T04:04:17;51.46;34.31;82.08;;
50333;Laerm;36239;48.132;-1.210;2023-04-01T04:06:43;53.74;35.94;82.69;;
50333;Laerm;36239;48.132;-1.210;2023-04-01T04:09:09;46.02;35.94;70.67;;
50333;Laerm;36239;48.132;-1.210;2023-04-01T04:11:35;49.91;35.36;80.81;;
50333;Laerm;36239;48.132;-1.210;2023-04-01T04:14:02;44.77;35.36;67.43;;
50333;Laerm;36239;48.132;-1.210;2023-04-01T04:16:28;48.07;34.69;76.13;;
50333;Laerm;36239;48.132;-1.210;2023-04-01T04:18:54;53.18;35.04;82.05;;
50333;Laerm;36239;48.132;-1.210;2023-04-01T04:21:20;45.38;35.66;70.56;;
50333;Laerm;36239;48.132;-1.210;2023-04-01T04:23:46;49.63;35.04;77.66;;
50333;Laerm;36239;48.132;-1.210;2023-04-01T04:26:13;53.75;35.66;81.74;;
50333;Laerm;36239;48.132;-1.210;2023-04-01T04:28:40;50.35;36.69;77.47;;
50333;Laerm;36239;48.132;-1.210;2023-04-01T04:31:06;51.11;34.69;81.07;;
50333;Laerm;36239;48.132;-1.210;2023-04-01T04:33:32;57.39;35.36;85.47;;
50333;Laerm;36239;48.132;-1.210;2023-04-01T04:35:58;49.33;35.66;76.98;;
50333;Laerm;36239;48.132;-1.210;2023-04-01T04:38:25;54.03;35.66;78.91;;
50333;Laerm;36239;48.132;-1.210;2023-04-01T04:40:51;49.50;36.45;77.74;;
50333;Laerm;36239;48.132;-1.210;2023-04-01T04:43:17;57.09;35.94;84.37;;
50333;Laerm;36239;48.132;-1.210;2023-04-01T04:45:43;52.84;36.45;81.30;;
50333;Laerm;36239;48.132;-1.210;2023-04-01T04:48:10;54.76;36.20;81.30;;
50333;Laerm;36239;48.132;-1.210;2023-04-01T04:50:36;47.85;35.04;68.91;;
50333;Laerm;36239;48.132;-1.210;2023-04-01T04:53:02;43.98;34.31;69.73;;
50333;Laerm;36239;48.132;-1.210;2023-04-01T04:55:28;54.06;35.36;85.24;;
50333;Laerm;36239;48.132;-1.210;2023-04-01T04:57:54;53.18;34.31;83.49;;
50333;Laerm;36239;48.132;-1.210;2023-04-01T05:00:20;43.10;35.04;68.22;;
50333;Laerm;36239;48.132;-1.210;2023-04-01T05:02:47;46.22;35.36;60.80;;
50333;Laerm;36239;48.132;-1.210;2023-04-01T05:05:13;47.44;36.69;63.41;;
50333;Laerm;36239;48.132;-1.210;2023-04-01T05:07:39;45.89;36.20;60.21;;
50333;Laerm;36239;48.132;-1.210;2023-04-01T05:10:05;48.09;37.12;62.22;;
50333;Laerm;36239;48.132;-1.210;2023-04-01T05:12:31;48.19;36.91;59.79;;
50333;Laerm;36239;48.132;-1.210;2023-04-01T05:15:03;49.78;36.20;61.85;;
50333;Laerm;36239;48.132;-1.210;2023-04-01T05:17:29;46.46;36.77;61.64;;
50333;Laerm;36239;48.132;-1.210;2023-04-01T05:19:55;46.62;36.45;69.31;;
50333;Laerm;36239;48.132;-1.210;2023-04-01T05:22:21;45.76;36.45;63.65;;
50333;Laerm;36239;48.132;-1.210;2023-04-01T05:24:47;50.32;36.69;76.12;;
50333;Laerm;36239;48.132;-1.210;2023-04-01T05:27:13;44.50;35.66;67.66;;
50333;Laerm;36239;48.132;-1.210;2023-04-01T05:29:39;48.08;36.45;73.11;;
50333;Laerm;36239;48.132;-1.210;2023-04-01T05:32:05;49.71;37.12;78.72;;
50333;Laerm;36239;48.132;-1.210;2023-04-01T05:34:31;46.14;36.20;75.09;;
50333;Laerm;36239;48.132;-1.210;2023-04-01T05:36:57;44.84;36.69;57.89;;
50333;Laerm;36239;48.132;-1.210;2023-04-01T05:39:23;42.08;35.66;62.98;;
50333;Laerm;36239;48.132;-1.210;2023-04-01T05:41:49;49.41;36.45;73.35;;
50333;Laerm;36239;48.132;-1.210;2023-04-01T05:44:15;48.40;36.45;73.93;;
50333;Laerm;36239;48.132;-1.210;2023-04-01T05:46:41;45.08;34.69;69.51;;
50333;Laerm;36239;48.132;-1.210;2023-04-01T05:49:07;50.83;37.12;83.16;;
50333;Laerm;36239;48.132;-1.210;2023-04-01T05:51:33;45.53;36.91;74.40;;
50333;Laerm;36239;48.132;-1.210;2023-04-01T05:54:00;45.78;36.91;75.34;;
50333;Laerm;36239;48.132;-1.210;2023-04-01T05:56:26;47.50;36.20;70.57;;
50333;Laerm;36239;48.132;-1.210;2023-04-01T05:58:53;40.21;35.94;50.61;;
50333;Laerm;36239;48.132;-1.210;2023-04-01T06:01:19;43.35;37.12;67.64;;
50333;Laerm;36239;48.132;-1.210;2023-04-01T06:03:45;41.23;36.20;53.40;;
50333;Laerm;36239;48.132;-1.210;2023-04-01T06:06:15;41.95;36.45;58.98;;
50333;Laerm;36239;48.132;-1.210;2023-04-01T06:08:42;42.20;36.69;53.41;;
50333;Laerm;36239;48.132;-1.210;2023-04-01T06:30:10;43.33;38.37;63.51;;
50333;Laerm;36239;48.132;-1.210;2023-04-01T06:51:14;41.91;37.70;63.57;;
50333;Laerm;36239;48.132;-1.210;2023-04-01T06:53:46;45.35;38.21;67.64;;
50333;Laerm;36239;48.132;-1.210;2023-04-01T06:56:18;43.49;38.05;63.33;;
50333;Laerm;36239;48.132;-1.210;2023-04-01T06:58:49;45.88;37.88;72.05;;
50333;Laerm;36239;48.132;-1.210;2023-04-01T07:01:19;42.08;37.70;54.17;;
50333;Laerm;36239;48.132;-1.210;2023-04-01T07:03:50;45.01;37.88;73.84;;
50333;Laerm;36239;48.132;-1.210;2023-04-01T07:06:32;48.81;38.05;77.76;;
50333;Laerm;36239;48.132;-1.210;2023-04-01T07:09:02;42.88;38.21;62.24;;
50333;Laerm;36239;48.132;-1.210;2023-04-01T07:11:31;43.15;37.88;62.79;;
50333;Laerm;36239;48.132;-1.210;2023-04-01T07:14:02;53.51;38.52;82.27;;
50333;Laerm;36239;48.132;-1.210;2023-04-01T07:16:31;50.50;39.58;81.05;;
50333;Laerm;36239;48.132;-1.210;2023-04-01T07:19:03;55.53;38.95;84.42;;
50333;Laerm;36239;48.132;-1.210;2023-04-01T07:21:42;56.04;38.67;83.91;;
50333;Laerm;36239;48.132;-1.210;2023-04-01T07:24:12;47.22;38.52;75.72;;
50333;Laerm;36239;48.132;-1.210;2023-04-01T07:26:41;58.17;39.08;86.32;;
50333;Laerm;36239;48.132;-1.210;2023-04-01T07:29:11;50.54;38.81;75.82;;
50333;Laerm;36239;48.132;-1.210;2023-04-01T07:39:41;42.15;37.32;62.67;;
50333;Laerm;36239;48.132;-1.210;2023-04-01T07:50:14;53.06;37.88;78.72;;
50333;Laerm;36239;48.132;-1.210;2023-04-01T07:52:51;42.10;38.05;60.96;;
50333;Laerm;36239;48.132;-1.210;2023-04-01T07:55:24;50.28;38.32;72.05;;
50333;Laerm;36239;48.132;-1.210;2023-04-01T08:00:22;56.28;39.58;84.93;;
50333;Laerm;36239;48.132;-1.210;2023-04-01T08:05:25;49.94;38.67;75.98;;
50333;Laerm;36239;48.132;-1.210;2023-04-01T08:07:57;58.79;38.21;81.63;;
50333;Laerm;36239;48.132;-1.210;2023-04-01T08:10:32;57.48;38.52;66.62;;
50333;Laerm;36239;48.132;-1.210;2023-04-01T08:15:54;64.09;39.21;92.52;;
50333;Laerm;36239;48.132;-1.210;2023-04-01T08:18:28;60.12;39.58;87.40;;
50333;Laerm;36239;48.132;-1.210;2023-04-01T08:21:04;60.85;40.23;89.95;;
50333;Laerm;36239;48.132;-1.210;2023-04-01T08:23:32;61.09;38.37;84.59;;
50333;Laerm;36239;48.132;-1.210;2023-04-01T08:26:04;59.23;38.21;69.64;;
50333;Laerm;36239;48.132;-1.210;2023-04-01T08:28:34;62.25;39.21;85.87;;
50333;Laerm;36239;48.132;-1.210;2023-04-01T08:31:04;58.18;38.67;83.90;;
50333;Laerm;36239;48.132;-1.210;2023-04-01T08:33:32;60.94;38.95;78.93;;
50333;Laerm;36239;48.132;-1.210;2023-04-01T08:36:03;60.54;39.81;77.49;;
50333;Laerm;36239;48.132;-1.210;2023-04-01T08:38:42;62.53;39.58;89.55;;
50333;Laerm;36239;48.132;-1.210;2023-04-01T08:41:12;57.89;38.32;71.02;;
50333;Laerm;36239;48.132;-1.210;2023-04-01T08:51:45;48.94;39.08;76.72;;
50333;Laerm;36239;48.132;-1.210;2023-04-01T08:56:57;60.54;40.13;92.02;;
50333;Laerm;36239;48.132;-1.210;2023-04-01T09:08:29;61.51;39.34;92.83;;
50333;Laerm;36239;48.132;-1.210;2023-04-01T09:10:33;50.26;38.95;79.89;;
50333;Laerm;36239;48.132;-1.210;2023-04-01T09:39:12;54.13;38.67;80.70;;
50333;Laerm;36239;48.132;-1.210;2023-04-01T09:42:03;51.58;38.52;79.02;;
50333;Laerm;36239;48.132;-1.210;2023-04-01T09:50:27;48.06;38.95;71.92;;
50333;Laerm;36239;48.132;-1.210;2023-04-01T09:55:21;44.75;40.98;64.36;;
50333;Laerm;36239;48.132;-1.210;2023-04-01T10:05:41;46.01;39.78;70.99;;
50333;Laerm;36239;48.132;-1.210;2023-04-01T10:16:19;67.35;40.43;83.46;;
50333;Laerm;36239;48.132;-1.210;2023-04-01T10:21:28;50.38;38.05;75.43;;
50333;Laerm;36239;48.132;-1.210;2023-04-01T10:29:15;60.91;40.13;91.39;;
50333;Laerm;36239;48.132;-1.210;2023-04-01T10:36:55;69.13;38.67;80.47;;
50333;Laerm;36239;48.132;-1.210;2023-04-01T10:50:04;58.30;38.21;82.62;;
50333;Laerm;36239;48.132;-1.210;2023-04-01T10:52:52;51.49;37.52;77.95;;
50333;Laerm;36239;48.132;-1.210;2023-04-01T10:55:35;53.77;36.45;80.04;;
50333;Laerm;36239;48.132;-1.210;2023-04-01T11:05:49;70.29;39.46;96.14;;
50333;Laerm;36239;48.132;-1.210;2023-04-01T11:11:29;51.46;37.32;83.43;;
50333;Laerm;36239;48.132;-1.210;2023-04-01T11:19:08;60.03;38.67;88.87;;
50333;Laerm;36239;48.132;-1.210;2023-04-01T11:21:57;69.12;38.37;82.09;;
50333;Laerm;36239;48.132;-1.210;2023-04-01T11:27:09;61.78;37.70;91.10;;
50333;Laerm;36239;48.132;-1.210;2023-04-01T11:42:44;59.20;37.88;86.63;;
50333;Laerm;36239;48.132;-1.210;2023-04-01T11:45:23;67.60;37.12;87.96;;
50333;Laerm;36239;48.132;-1.210;2023-04-01T12:09:46;54.01;40.03;80.84;;
50333;Laerm;36239;48.132;-1.210;2023-04-01T12:45:34;47.26;38.67;69.61;;
50333;Laerm;36239;48.132;-1.210;2023-04-01T12:55:38;72.45;38.67;82.08;;
50333;Laerm;36239;48.132;-1.210;2023-04-01T12:58:10;48.03;38.37;78.63;;
50333;Laerm;36239;48.132;-1.210;2023-04-01T13:16:42;50.76;37.52;74.22;;
50333;Laerm;36239;48.132;-1.210;2023-04-01T13:29:27;58.10;38.21;87.58;;
50333;Laerm;36239;48.132;-1.210;2023-04-01T13:37:13;67.56;38.37;95.54;;
50333;Laerm;36239;48.132;-1.210;2023-04-01T13:47:28;56.06;39.08;90.41;;
50333;Laerm;36239;48.132;-1.210;2023-04-01T13:50:23;57.81;38.37;81.88;;
50333;Laerm;36239;48.132;-1.210;2023-04-01T14:03:30;53.71;38.67;79.88;;
50333;Laerm;36239;48.132;-1.210;2023-04-01T14:06:05;70.90;38.52;98.44;;
50333;Laerm;36239;48.132;-1.210;2023-04-01T14:23:59;62.68;39.34;95.12;;
50333;Laerm;36239;48.132;-1.210;2023-04-01T14:47:19;57.95;38.21;86.65;;
50333;Laerm;36239;48.132;-1.210;2023-04-01T14:49:49;59.50;38.37;87.23;;
50333;Laerm;36239;48.132;-1.210;2023-04-01T14:52:21;69.21;39.11;94.36;;
50333;Laerm;36239;48.132;-1.210;2023-04-01T14:54:48;54.98;38.95;90.02;;
50333;Laerm;36239;48.132;-1.210;2023-04-01T14:57:22;47.96;39.70;73.99;;
50333;Laerm;36239;48.132;-1.210;2023-04-01T15:23:31;73.64;41.26;104.83;;
50333;Laerm;36239;48.132;-1.210;2023-04-01T15:28:39;62.62;40.98;92.88;;
50333;Laerm;36239;48.132;-1.210;2023-04-01T15:36:24;61.73;38.52;89.60;;
50333;Laerm;36239;48.132;-1.210;2023-04-01T15:41:24;57.99;38.81;82.72;;
50333;Laerm;36239;48.132;-1.210;2023-04-01T15:43:53;66.27;39.23;89.47;;
50333;Laerm;36239;48.132;-1.210;2023-04-01T15:49:06;72.31;40.53;95.01;;
50333;Laerm;36239;48.132;-1.210;2023-04-01T16:20:07;66.81;40.80;92.32;;
50333;Laerm;36239;48.132;-1.210;2023-04-01T16:22:49;53.01;40.80;75.88;;
50333;Laerm;36239;48.132;-1.210;2023-04-01T16:25:36;55.83;39.81;83.64;;
50333;Laerm;36239;48.132;-1.210;2023-04-01T16:41:10;49.57;38.81;71.41;;
50333;Laerm;36239;48.132;-1.210;2023-04-01T16:43:38;49.73;39.08;71.84;;
50333;Laerm;36239;48.132;-1.210;2023-04-01T16:46:13;56.87;38.67;83.40;;
50333;Laerm;36239;48.132;-1.210;2023-04-01T16:51:22;53.16;39.34;86.25;;
50333;Laerm;36239;48.132;-1.210;2023-04-01T16:53:49;56.35;38.52;87.74;;
50333;Laerm;36239;48.132;-1.210;2023-04-01T16:56:23;60.68;38.95;90.38;;
50333;Laerm;36239;48.132;-1.210;2023-04-01T17:01:22;62.85;40.33;93.72;;
50333;Laerm;36239;48.132;-1.210;2023-04-01T17:03:51;51.89;39.92;78.53;;
50333;Laerm;36239;48.132;-1.210;2023-04-01T17:14:20;53.86;38.67;84.41;;
50333;Laerm;36239;48.132;-1.210;2023-04-01T17:25:04;53.98;39.46;84.82;;
50333;Laerm;36239;48.132;-1.210;2023-04-01T17:35:56;62.15;38.52;83.38;;
50333;Laerm;36239;48.132;-1.210;2023-04-01T17:38:23;53.78;38.52;86.48;;
50333;Laerm;36239;48.132;-1.210;2023-04-01T17:45:57;63.37;38.05;92.14;;
50333;Laerm;36239;48.132;-1.210;2023-04-01T17:51:40;62.74;38.81;90.05;;
50333;Laerm;36239;48.132;-1.210;2023-04-01T17:59:37;58.59;38.21;84.61;;
50333;Laerm;36239;48.132;-1.210;2023-04-01T18:18:23;52.99;37.32;79.80;;
50333;Laerm;36239;48.132;-1.210;2023-04-01T18:25:46;59.40;36.69;85.69;;
50333;Laerm;36239;48.132;-1.210;2023-04-01T18:30:42;55.55;35.94;81.15;;
50333;Laerm;36239;48.132;-1.210;2023-04-01T18:36:37;45.47;37.12;75.02;;
50333;Laerm;36239;48.132;-1.210;2023-04-01T18:38:54;47.56;37.52;76.87;;
50333;Laerm;36239;48.132;-1.210;2023-04-01T18:46:52;47.42;37.12;69.25;;
50333;Laerm;36239;48.132;-1.210;2023-04-01T18:57:18;49.79;36.45;77.30;;
50333;Laerm;36239;48.132;-1.210;2023-04-01T18:59:46;50.07;36.20;78.94;;
50333;Laerm;36239;48.132;-1.210;2023-04-01T19:09:55;43.73;34.69;68.25;;
50333;Laerm;36239;48.132;-1.210;2023-04-01T19:27:53;45.60;34.69;68.07;;
50333;Laerm;36239;48.132;-1.210;2023-04-01T19:46:01;38.47;33.90;46.55;;
50333;Laerm;36239;48.132;-1.210;2023-04-01T19:51:23;45.98;34.31;73.79;;
50333;Laerm;36239;48.132;-1.210;2023-04-01T19:56:30;47.39;34.69;74.95;;
50333;Laerm;36239;48.132;-1.210;2023-04-01T19:59:04;44.48;33.90;68.73;;
50333;Laerm;36239;48.132;-1.210;2023-04-01T20:01:38;41.47;33.44;71.23;;
50333;Laerm;36239;48.132;-1.210;2023-04-01T20:04:13;45.09;34.31;76.93;;
50333;Laerm;36239;48.132;-1.210;2023-04-01T20:14:46;49.92;34.31;78.30;;
50333;Laerm;36239;48.132;-1.210;2023-04-01T20:17:18;41.37;33.44;60.84;;
50333;Laerm;36239;48.132;-1.210;2023-04-01T20:22:51;43.07;35.04;66.59;;
50333;Laerm;36239;48.132;-1.210;2023-04-01T20:25:27;40.70;33.44;65.32;;
50333;Laerm;36239;48.132;-1.210;2023-04-01T20:27:58;40.02;32.35;66.86;;
50333;Laerm;36239;48.132;-1.210;2023-04-01T20:37:57;49.97;35.36;75.83;;
50333;Laerm;36239;48.132;-1.210;2023-04-01T20:40:32;53.96;34.31;78.52;;
50333;Laerm;36239;48.132;-1.210;2023-04-01T21:01:51;55.68;33.90;86.31;;
50333;Laerm;36239;48.132;-1.210;2023-04-01T21:22:36;43.63;34.31;69.72;;
50333;Laerm;36239;48.132;-1.210;2023-04-01T21:25:50;39.11;35.04;55.91;;
50333;Laerm;36239;48.132;-1.210;2023-04-01T21:38:15;47.32;35.66;75.04;;
50333;Laerm;36239;48.132;-1.210;2023-04-01T21:43:25;40.67;35.36;60.33;;
50333;Laerm;36239;48.132;-1.210;2023-04-01T22:03:23;43.23;35.04;68.66;;
50333;Laerm;36239;48.132;-1.210;2023-04-01T22:14:06;41.88;36.45;55.39;;
50333;Laerm;36239;48.132;-1.210;2023-04-01T22:16:37;42.96;36.20;62.94;;
50333;Laerm;36239;48.132;-1.210;2023-04-01T22:21:41;46.20;34.31;73.65;;
50333;Laerm;36239;48.132;-1.210;2023-04-01T22:26:38;39.12;33.44;51.27;;
50333;Laerm;36239;48.132;-1.210;2023-04-01T22:31:40;42.62;34.31;62.63;;
50333;Laerm;36239;48.132;-1.210;2023-04-01T22:36:47;40.19;35.04;61.59;;
50333;Laerm;36239;48.132;-1.210;2023-04-01T22:39:22;44.11;32.93;73.14;;
50333;Laerm;36239;48.132;-1.210;2023-04-01T22:47:04;49.68;35.36;77.09;;
50333;Laerm;36239;48.132;-1.210;2023-04-01T22:49:39;42.00;34.69;64.70;;
50333;Laerm;36239;48.132;-1.210;2023-04-01T22:54:41;41.21;34.31;65.56;;
50333;Laerm;36239;48.132;-1.210;2023-04-01T22:57:14;41.81;33.90;64.28;;
50333;Laerm;36239;48.132;-1.210;2023-04-01T22:59:54;39.79;35.04;62.61;;
50333;Laerm;36239;48.132;-1.210;2023-04-01T23:02:25;39.48;34.69;62.01;;
50333;Laerm;36239;48.132;-1.210;2023-04-01T23:04:54;40.47;34.69;65.09;;
50333;Laerm;36239;48.132;-1.210;2023-04-01T23:10:15;41.07;34.31;60.16;;
50333;Laerm;36239;48.132;-1.210;2023-04-01T23:12:43;46.41;33.90;78.66;;
50333;Laerm;36239;48.132;-1.210;2023-04-01T23:15:13;41.42;34.69;68.33;;
50333;Laerm;36239;48.132;-1.210;2023-04-01T23:28:17;45.44;35.04;71.45;;
50333;Laerm;36239;48.132;-1.210;2023-04-01T23:35:50;43.11;33.44;66.97;;
50333;Laerm;36239;48.132;-1.210;2023-04-01T23:38:17;50.00;33.90;76.10;;
50333;Laerm;36239;48.132;-1.210;2023-04-01T23:40:44;59.04;35.04;87.36;;
50333;Laerm;36239;48.132;-1.210;2023-04-01T23:43:13;46.14;33.90;67.75;;
50333;Laerm;36239;48.132;-1.210;2023-04-01T23:45:41;50.36;33.90;74.88;;
50333;Laerm;36239;48.132;-1.210;2023-04-01T23:48:11;59.65;35.36;81.59;;
50333;Laerm;36239;48.132;-1.210;2023-04-01T23:50:39;48.44;35.31;69.89;;
50333;Laerm;36239;48.132;-1.210;2023-04-01T23:56:01;38.31;33.44;56.22;;
